createdAt,value
2018-08-27T00:01:00.869Z,12.70
2018-08-27T00:02:07.074Z,12.82
2018-08-27T00:03:13.540Z,12.98
2018-08-27T00:04:19.435Z,12.98
2018-08-27T00:05:25.688Z,12.78
2018-08-27T00:06:32.966Z,12.63
2018-08-27T00:07:39.338Z,12.60
2018-08-27T00:08:45.489Z,12.64
2018-08-27T00:09:51.419Z,12.62
2018-08-27T00:10:57.797Z,12.69
2018-08-27T00:12:04.096Z,12.65
2018-08-27T00:13:10.427Z,12.58
2018-08-27T00:14:16.692Z,12.54
2018-08-27T00:15:23.011Z,12.52
2018-08-27T00:16:29.340Z,12.53
2018-08-27T00:17:35.915Z,12.61
2018-08-27T00:18:42.286Z,12.52
2018-08-27T00:19:49.137Z,12.48
2018-08-27T00:20:55.732Z,12.49
2018-08-27T00:22:02.041Z,12.44
2018-08-27T00:23:08.376Z,12.38
2018-08-27T00:24:14.692Z,12.40
2018-08-27T00:25:20.979Z,12.37
2018-08-27T00:26:27.392Z,12.36
2018-08-27T00:27:33.376Z,12.37
2018-08-27T00:28:39.944Z,12.41
2018-08-27T00:29:46.196Z,12.36
2018-08-27T00:30:52.553Z,12.40
2018-08-27T00:31:58.845Z,12.42
2018-08-27T00:33:04.779Z,12.37
2018-08-27T00:34:11.167Z,12.30
2018-08-27T00:35:17.455Z,12.29
2018-08-27T00:36:23.705Z,12.26
2018-08-27T00:37:29.788Z,12.19
2018-08-27T00:38:36.678Z,12.25
2018-08-27T00:39:42.576Z,12.21
2018-08-27T00:40:49.048Z,12.19
2018-08-27T00:41:55.344Z,12.14
2018-08-27T00:43:01.779Z,12.26
2018-08-27T00:44:08.058Z,12.18
2018-08-27T00:45:14.384Z,12.15
2018-08-27T00:46:20.710Z,12.06
2018-08-27T00:47:27.296Z,12.06
2018-08-27T00:48:33.623Z,12.18
2018-08-27T00:49:40.052Z,12.16
2018-08-27T00:50:46.328Z,12.20
2018-08-27T00:51:52.867Z,12.19
2018-08-27T00:52:59.168Z,12.15
2018-08-27T00:54:05.474Z,12.15
2018-08-27T00:55:11.672Z,12.16
2018-08-27T00:56:18.050Z,12.14
2018-08-27T00:57:25.084Z,12.12
2018-08-27T00:58:31.339Z,12.01
2018-08-27T00:59:37.660Z,12.00
2018-08-27T01:00:43.872Z,12.04
2018-08-27T01:01:54.094Z,12.00
2018-08-27T01:03:00.508Z,11.98
2018-08-27T01:04:06.464Z,11.92
2018-08-27T01:05:12.909Z,11.95
2018-08-27T01:06:19.219Z,11.95
2018-08-27T01:07:25.510Z,12.00
2018-08-27T01:08:31.828Z,12.09
2018-08-27T01:09:37.973Z,12.08
2018-08-27T01:10:44.075Z,12.13
2018-08-27T01:11:50.388Z,12.09
2018-08-27T01:12:56.467Z,12.08
2018-08-27T01:14:02.930Z,12.01
2018-08-27T01:15:09.878Z,11.95
2018-08-27T01:16:15.791Z,11.94
2018-08-27T01:17:22.153Z,11.93
2018-08-27T01:18:28.428Z,11.82
2018-08-27T01:19:34.747Z,11.90
2018-08-27T01:20:41.059Z,11.79
2018-08-27T01:21:47.323Z,11.88
2018-08-27T01:22:53.571Z,11.95
2018-08-27T01:24:00.070Z,11.99
2018-08-27T01:25:05.711Z,11.96
2018-08-27T01:26:11.988Z,11.89
2018-08-27T01:27:18.221Z,11.82
2018-08-27T01:28:24.371Z,11.68
2018-08-27T01:29:30.253Z,11.73
2018-08-27T01:30:36.340Z,11.82
2018-08-27T01:31:42.329Z,11.76
2018-08-27T01:32:48.813Z,11.82
2018-08-27T01:33:56.247Z,11.83
2018-08-27T01:35:02.088Z,11.65
2018-08-27T01:36:08.337Z,11.58
2018-08-27T01:37:15.374Z,11.54
2018-08-27T01:38:21.679Z,11.62
2018-08-27T01:39:27.998Z,11.57
2018-08-27T01:40:34.270Z,11.68
2018-08-27T01:41:40.615Z,11.68
2018-08-27T01:42:46.952Z,11.67
2018-08-27T01:43:53.624Z,11.70
2018-08-27T01:45:00.079Z,11.74
2018-08-27T01:46:06.335Z,11.72
2018-08-27T01:47:12.656Z,11.69
2018-08-27T01:48:19.008Z,11.44
2018-08-27T01:49:25.328Z,11.39
2018-08-27T01:50:31.740Z,11.45
2018-08-27T01:51:38.095Z,11.53
2018-08-27T01:52:45.216Z,11.58
2018-08-27T01:53:51.465Z,11.51
2018-08-27T01:54:57.791Z,11.54
2018-08-27T01:56:03.839Z,11.55
2018-08-27T01:57:10.137Z,11.56
2018-08-27T01:58:16.714Z,11.48
2018-08-27T01:59:23.149Z,11.54
2018-08-27T02:00:29.404Z,11.49
2018-08-27T02:01:35.880Z,11.33
2018-08-27T02:02:42.195Z,11.39
2018-08-27T02:03:48.178Z,11.48
2018-08-27T02:04:54.150Z,11.49
2018-08-27T02:06:00.444Z,11.39
2018-08-27T02:07:06.416Z,11.33
2018-08-27T02:08:12.764Z,11.40
2018-08-27T02:09:19.147Z,11.36
2018-08-27T02:10:25.411Z,11.34
2018-08-27T02:11:32.888Z,11.40
2018-08-27T02:12:39.211Z,11.43
2018-08-27T02:13:45.311Z,11.40
2018-08-27T02:14:51.724Z,11.44
2018-08-27T02:15:57.993Z,11.37
2018-08-27T02:17:03.940Z,11.37
2018-08-27T02:18:10.313Z,11.36
2018-08-27T02:19:18.541Z,11.37
2018-08-27T02:20:25.952Z,11.26
2018-08-27T02:21:32.306Z,11.28
2018-08-27T02:22:38.669Z,11.40
2018-08-27T02:23:44.975Z,11.31
2018-08-27T02:24:51.194Z,11.29
2018-08-27T02:25:57.450Z,11.32
2018-08-27T02:27:03.604Z,11.31
2018-08-27T02:28:09.868Z,11.22
2018-08-27T02:29:16.655Z,11.27
2018-08-27T02:30:23.048Z,11.23
2018-08-27T02:31:28.637Z,11.20
2018-08-27T02:32:35.015Z,11.22
2018-08-27T02:33:41.057Z,11.24
2018-08-27T02:34:47.475Z,11.21
2018-08-27T02:35:53.708Z,11.38
2018-08-27T02:37:04.807Z,11.49
2018-08-27T02:38:11.338Z,11.46
2018-08-27T02:39:17.604Z,11.40
2018-08-27T02:40:23.415Z,11.38
2018-08-27T02:41:29.471Z,11.36
2018-08-27T02:42:44.265Z,11.29
2018-08-27T02:43:50.897Z,11.36
2018-08-27T02:44:57.148Z,11.47
2018-08-27T02:46:03.500Z,11.55
2018-08-27T02:47:13.500Z,11.47
2018-08-27T02:48:19.752Z,11.51
2018-08-27T02:49:26.098Z,11.56
2018-08-27T02:50:31.775Z,11.55
2018-08-27T02:51:38.105Z,11.56
2018-08-27T02:52:44.680Z,11.67
2018-08-27T02:53:50.786Z,11.74
2018-08-27T02:54:57.224Z,11.74
2018-08-27T02:56:03.583Z,11.74
2018-08-27T02:57:09.897Z,11.81
2018-08-27T02:58:15.929Z,11.82
2018-08-27T02:59:22.275Z,12.04
2018-08-27T03:00:28.277Z,12.22
2018-08-27T03:01:34.634Z,12.05
2018-08-27T03:02:41.200Z,12.03
2018-08-27T03:03:47.659Z,12.02
2018-08-27T03:04:53.965Z,11.86
2018-08-27T03:06:00.299Z,11.86
2018-08-27T03:07:06.559Z,11.77
2018-08-27T03:08:12.640Z,11.76
2018-08-27T03:09:18.969Z,11.92
2018-08-27T03:10:26.677Z,11.91
2018-08-27T03:11:32.968Z,11.91
2018-08-27T03:12:39.533Z,11.87
2018-08-27T03:13:45.877Z,11.97
2018-08-27T03:14:52.180Z,11.93
2018-08-27T03:15:58.553Z,12.00
2018-08-27T03:17:05.408Z,12.09
2018-08-27T03:18:11.775Z,11.99
2018-08-27T03:19:18.801Z,11.91
2018-08-27T03:20:24.698Z,11.92
2018-08-27T03:21:30.996Z,11.92
2018-08-27T03:22:37.319Z,12.07
2018-08-27T03:23:43.589Z,12.12
2018-08-27T03:24:49.968Z,12.19
2018-08-27T03:25:56.099Z,12.19
2018-08-27T03:27:02.561Z,12.24
2018-08-27T03:28:08.908Z,12.30
2018-08-27T03:29:15.147Z,12.60
2018-08-27T03:30:21.515Z,12.51
2018-08-27T03:31:27.847Z,12.46
2018-08-27T03:32:33.998Z,12.51
2018-08-27T03:33:40.328Z,12.58
2018-08-27T03:34:46.608Z,12.51
2018-08-27T03:35:52.976Z,12.75
2018-08-27T03:36:59.627Z,12.91
2018-08-27T03:38:05.727Z,13.06
2018-08-27T03:39:11.794Z,12.86
2018-08-27T03:40:18.170Z,12.69
2018-08-27T03:41:24.497Z,12.78
2018-08-27T03:42:30.848Z,12.85
2018-08-27T03:43:37.107Z,12.55
2018-08-27T03:44:43.682Z,12.42
2018-08-27T03:45:50.285Z,12.62
2018-08-27T03:46:56.626Z,12.63
2018-08-27T03:48:03.001Z,12.71
2018-08-27T03:49:09.280Z,12.69
2018-08-27T03:50:15.616Z,12.77
2018-08-27T03:51:21.900Z,12.60
2018-08-27T03:52:28.245Z,12.53
2018-08-27T03:53:34.518Z,12.46
2018-08-27T03:54:40.843Z,12.42
2018-08-27T03:55:47.393Z,12.44
2018-08-27T03:56:53.814Z,12.44
2018-08-27T03:58:00.134Z,12.50
2018-08-27T03:59:05.712Z,12.37
2018-08-27T04:00:12.096Z,12.29
2018-08-27T04:01:18.404Z,12.40
2018-08-27T04:02:24.768Z,12.59
2018-08-27T04:03:31.016Z,12.34
2018-08-27T04:04:37.580Z,12.34
2018-08-27T04:05:44.919Z,12.35
2018-08-27T04:06:51.180Z,12.26
2018-08-27T04:07:57.539Z,12.28
2018-08-27T04:09:03.276Z,12.19
2018-08-27T04:10:09.615Z,12.27
2018-08-27T04:11:15.919Z,12.24
2018-08-27T04:12:23.092Z,12.19
2018-08-27T04:13:29.669Z,12.23
2018-08-27T04:14:36.081Z,12.25
2018-08-27T04:15:42.288Z,12.22
2018-08-27T04:16:48.715Z,12.13
2018-08-27T04:17:55.068Z,12.08
2018-08-27T04:19:01.345Z,12.04
2018-08-27T04:20:07.708Z,12.07
2018-08-27T04:21:13.716Z,12.11
2018-08-27T04:23:24.819Z,12.30
2018-08-27T04:24:31.194Z,12.20
2018-08-27T04:25:37.417Z,12.25
2018-08-27T04:26:43.821Z,12.21
2018-08-27T04:27:50.248Z,12.22
2018-08-27T04:28:56.822Z,12.23
2018-08-27T04:30:03.834Z,12.22
2018-08-27T04:31:10.163Z,12.10
2018-08-27T04:32:16.596Z,12.08
2018-08-27T04:33:22.911Z,12.09
2018-08-27T04:34:29.229Z,12.12
2018-08-27T04:35:35.501Z,12.08
2018-08-27T04:36:41.922Z,12.14
2018-08-27T04:37:48.433Z,12.16
2018-08-27T04:38:54.784Z,12.07
2018-08-27T04:40:01.058Z,12.12
2018-08-27T04:41:06.690Z,12.18
2018-08-27T04:42:13.005Z,12.22
2018-08-27T04:43:19.273Z,12.19
2018-08-27T04:44:25.631Z,12.27
2018-08-27T04:45:31.917Z,12.29
2018-08-27T04:46:38.273Z,12.28
2018-08-27T04:47:44.545Z,12.21
2018-08-27T04:48:50.873Z,12.23
2018-08-27T04:49:57.179Z,12.28
2018-08-27T04:51:03.732Z,12.31
2018-08-27T04:52:09.984Z,12.38
2018-08-27T04:53:16.434Z,12.41
2018-08-27T04:54:22.743Z,12.41
2018-08-27T04:55:29.052Z,12.39
2018-08-27T04:56:35.329Z,12.42
2018-08-27T04:57:41.694Z,12.45
2018-08-27T04:58:47.721Z,12.52
2018-08-27T04:59:53.967Z,12.62
2018-08-27T05:01:00.344Z,12.61
2018-08-27T05:02:06.856Z,12.62
2018-08-27T05:03:13.187Z,12.71
2018-08-27T05:04:19.589Z,12.69
2018-08-27T05:05:25.818Z,12.73
2018-08-27T05:06:32.616Z,12.85
2018-08-27T05:07:38.867Z,12.85
2018-08-27T05:08:45.205Z,12.84
2018-08-27T05:09:51.611Z,12.84
2018-08-27T05:10:58.104Z,12.93
2018-08-27T05:12:04.459Z,13.08
2018-08-27T05:13:11.173Z,13.24
2018-08-27T05:14:19.855Z,13.04
2018-08-27T05:15:26.900Z,13.19
2018-08-27T05:16:33.152Z,13.29
2018-08-27T05:17:39.583Z,13.16
2018-08-27T05:18:45.860Z,13.18
2018-08-27T05:19:52.212Z,13.21
2018-08-27T05:20:58.595Z,13.35
2018-08-27T05:22:04.564Z,13.38
2018-08-27T05:23:10.938Z,13.33
2018-08-27T05:24:17.275Z,13.37
2018-08-27T05:25:23.528Z,13.39
2018-08-27T05:26:29.604Z,13.42
2018-08-27T05:27:35.959Z,13.55
2018-08-27T05:28:42.321Z,13.51
2018-08-27T05:29:48.574Z,13.60
2018-08-27T05:30:54.812Z,13.56
2018-08-27T05:32:02.021Z,13.65
2018-08-27T05:33:08.268Z,13.81
2018-08-27T05:34:14.547Z,13.90
2018-08-27T05:35:20.882Z,13.68
2018-08-27T05:36:27.168Z,13.81
2018-08-27T05:37:33.472Z,13.85
2018-08-27T05:38:39.961Z,13.84
2018-08-27T05:39:47.118Z,13.81
2018-08-27T05:40:53.336Z,13.90
2018-08-27T05:41:59.653Z,14.05
2018-08-27T05:43:06.165Z,14.02
2018-08-27T05:44:12.532Z,13.98
2018-08-27T05:45:18.775Z,13.96
2018-08-27T05:46:25.029Z,14.01
2018-08-27T05:47:31.340Z,14.08
2018-08-27T05:48:37.759Z,14.24
2018-08-27T05:49:44.028Z,14.26
2018-08-27T05:50:50.349Z,14.35
2018-08-27T05:51:56.661Z,14.33
2018-08-27T05:53:03.204Z,14.61
2018-08-27T05:54:10.064Z,14.69
2018-08-27T05:55:16.348Z,14.58
2018-08-27T05:56:22.767Z,14.71
2018-08-27T05:57:28.864Z,14.99
2018-08-27T05:58:35.284Z,15.03
2018-08-27T05:59:41.568Z,14.92
2018-08-27T06:00:47.871Z,14.84
2018-08-27T06:01:54.279Z,14.99
2018-08-27T06:03:01.433Z,15.08
2018-08-27T06:04:07.880Z,14.98
2018-08-27T06:05:14.382Z,15.21
2018-08-27T06:06:20.661Z,15.32
2018-08-27T06:07:27.008Z,15.47
2018-08-27T06:08:33.312Z,15.56
2018-08-27T06:09:40.270Z,15.72
2018-08-27T06:10:46.600Z,15.66
2018-08-27T06:11:52.934Z,15.62
2018-08-27T06:12:59.168Z,15.66
2018-08-27T06:14:05.489Z,15.82
2018-08-27T06:15:11.691Z,15.95
2018-08-27T06:16:18.247Z,15.93
2018-08-27T06:17:24.795Z,15.94
2018-08-27T06:18:31.176Z,16.14
2018-08-27T06:19:37.069Z,16.23
2018-08-27T06:20:43.324Z,16.30
2018-08-27T06:21:50.333Z,16.34
2018-08-27T06:22:57.014Z,16.44
2018-08-27T06:24:03.424Z,16.34
2018-08-27T06:25:09.762Z,16.30
2018-08-27T06:26:16.347Z,16.19
2018-08-27T06:27:22.584Z,16.31
2018-08-27T06:28:28.874Z,16.42
2018-08-27T06:29:35.185Z,16.45
2018-08-27T06:30:41.529Z,16.49
2018-08-27T06:31:47.794Z,16.49
2018-08-27T06:32:54.237Z,16.61
2018-08-27T06:34:00.540Z,16.75
2018-08-27T06:35:06.192Z,16.71
2018-08-27T06:36:12.836Z,16.70
2018-08-27T06:37:19.143Z,16.81
2018-08-27T06:38:25.432Z,16.77
2018-08-27T06:39:31.681Z,16.74
2018-08-27T06:40:37.977Z,16.94
2018-08-27T06:41:44.327Z,17.05
2018-08-27T06:42:50.724Z,17.11
2018-08-27T06:43:57.040Z,17.07
2018-08-27T06:45:02.954Z,17.07
2018-08-27T06:46:09.386Z,17.26
2018-08-27T06:47:15.840Z,17.39
2018-08-27T06:48:22.080Z,17.47
2018-08-27T06:49:28.392Z,17.42
2018-08-27T06:50:34.839Z,17.59
2018-08-27T06:51:41.372Z,17.63
2018-08-27T06:52:47.743Z,17.63
2018-08-27T06:53:54.728Z,17.58
2018-08-27T06:55:01.088Z,17.68
2018-08-27T06:56:07.023Z,17.83
2018-08-27T06:57:13.532Z,17.88
2018-08-27T06:58:20.723Z,17.92
2018-08-27T06:59:27.174Z,17.87
2018-08-27T07:00:33.437Z,18.03
2018-08-27T07:01:39.781Z,18.17
2018-08-27T07:02:46.159Z,18.21
2018-08-27T07:03:52.484Z,18.14
2018-08-27T07:04:58.820Z,18.07
2018-08-27T07:06:04.724Z,18.20
2018-08-27T07:07:10.999Z,18.32
2018-08-27T07:08:17.299Z,18.41
2018-08-27T07:09:23.892Z,18.29
2018-08-27T07:10:29.812Z,18.24
2018-08-27T07:11:35.897Z,18.33
2018-08-27T07:12:42.472Z,18.43
2018-08-27T07:13:48.910Z,18.31
2018-08-27T07:14:55.322Z,18.33
2018-08-27T07:16:01.581Z,18.43
2018-08-27T07:17:07.939Z,18.44
2018-08-27T07:18:14.371Z,18.48
2018-08-27T07:19:20.671Z,18.30
2018-08-27T07:20:26.696Z,18.24
2018-08-27T07:21:32.604Z,18.42
2018-08-27T07:22:38.843Z,18.40
2018-08-27T07:23:45.099Z,18.32
2018-08-27T07:24:51.391Z,18.32
2018-08-27T07:25:57.748Z,18.39
2018-08-27T07:27:04.054Z,18.55
2018-08-27T07:28:10.695Z,18.47
2018-08-27T07:29:17.775Z,18.59
2018-08-27T07:30:24.092Z,18.56
2018-08-27T07:31:30.371Z,18.65
2018-08-27T07:32:36.647Z,18.66
2018-08-27T07:33:42.900Z,18.76
2018-08-27T07:34:49.235Z,18.87
2018-08-27T07:35:55.547Z,18.84
2018-08-27T07:37:01.945Z,18.72
2018-08-27T07:38:08.248Z,18.80
2018-08-27T07:39:14.560Z,18.81
2018-08-27T07:40:21.635Z,18.78
2018-08-27T07:41:27.597Z,18.89
2018-08-27T07:42:33.907Z,18.83
2018-08-27T07:43:40.325Z,18.90
2018-08-27T07:44:46.866Z,18.92
2018-08-27T07:45:53.724Z,19.01
2018-08-27T07:47:00.081Z,18.90
2018-08-27T07:48:06.193Z,18.93
2018-08-27T07:49:12.484Z,18.96
2018-08-27T07:50:18.292Z,18.81
2018-08-27T07:51:24.361Z,18.68
2018-08-27T07:52:30.508Z,18.82
2018-08-27T07:53:36.548Z,18.89
2018-08-27T07:54:42.955Z,18.93
2018-08-27T07:55:49.241Z,18.82
2018-08-27T07:56:55.571Z,18.87
2018-08-27T07:58:01.896Z,18.95
2018-08-27T07:59:08.563Z,19.05
2018-08-27T08:00:14.712Z,19.06
2018-08-27T08:01:21.163Z,19.07
2018-08-27T08:02:27.073Z,19.11
2018-08-27T08:03:33.122Z,19.14
2018-08-27T08:04:39.033Z,19.08
2018-08-27T08:05:45.565Z,19.17
2018-08-27T08:06:51.870Z,19.23
2018-08-27T08:07:58.635Z,19.25
2018-08-27T08:09:04.072Z,19.22
2018-08-27T08:10:10.184Z,19.28
2018-08-27T08:11:17.125Z,19.25
2018-08-27T08:12:23.403Z,19.10
2018-08-27T08:13:29.034Z,19.10
2018-08-27T08:14:35.418Z,19.22
2018-08-27T08:15:41.986Z,19.25
2018-08-27T08:16:48.143Z,19.32
2018-08-27T08:17:54.449Z,19.29
2018-08-27T08:19:00.457Z,19.35
2018-08-27T08:20:06.907Z,19.18
2018-08-27T08:21:13.297Z,19.14
2018-08-27T08:22:19.420Z,19.19
2018-08-27T08:23:26.256Z,19.30
2018-08-27T08:24:32.448Z,19.18
2018-08-27T08:25:38.528Z,19.28
2018-08-27T08:26:44.749Z,19.24
2018-08-27T08:27:50.705Z,19.32
2018-08-27T08:28:56.540Z,19.27
2018-08-27T08:30:02.873Z,19.23
2018-08-27T08:31:08.481Z,19.21
2018-08-27T08:32:14.809Z,19.13
2018-08-27T08:33:21.189Z,19.27
2018-08-27T08:34:27.273Z,19.34
2018-08-27T08:35:33.674Z,19.39
2018-08-27T08:36:39.939Z,19.27
2018-08-27T08:37:46.232Z,19.39
2018-08-27T08:38:52.471Z,19.33
2018-08-27T08:39:59.028Z,19.45
2018-08-27T08:41:05.501Z,19.46
2018-08-27T08:42:12.149Z,19.54
2018-08-27T08:43:18.381Z,19.55
2018-08-27T08:44:24.771Z,19.58
2018-08-27T08:45:31.062Z,19.73
2018-08-27T08:46:37.337Z,19.58
2018-08-27T08:47:43.654Z,19.57
2018-08-27T08:48:50.579Z,19.74
2018-08-27T08:49:56.971Z,19.85
2018-08-27T08:51:03.280Z,19.96
2018-08-27T08:52:09.528Z,19.89
2018-08-27T08:53:15.843Z,19.79
2018-08-27T08:54:22.132Z,19.84
2018-08-27T08:55:28.488Z,19.98
2018-08-27T08:56:34.772Z,20.06
2018-08-27T08:57:41.130Z,19.94
2018-08-27T08:58:47.391Z,19.91
2018-08-27T08:59:53.857Z,19.91
2018-08-27T09:01:00.270Z,19.89
2018-08-27T09:02:06.540Z,19.83
2018-08-27T09:03:12.940Z,19.74
2018-08-27T09:04:19.144Z,19.88
2018-08-27T09:05:25.393Z,19.91
2018-08-27T09:06:31.709Z,19.72
2018-08-27T09:07:37.980Z,19.83
2018-08-27T09:08:44.096Z,19.97
2018-08-27T09:09:50.564Z,19.97
2018-08-27T09:10:56.944Z,19.96
2018-08-27T09:12:03.230Z,19.90
2018-08-27T09:13:09.542Z,19.85
2018-08-27T09:14:15.935Z,19.84
2018-08-27T09:15:22.203Z,19.94
2018-08-27T09:16:28.137Z,20.07
2018-08-27T09:17:34.543Z,19.94
2018-08-27T09:18:41.674Z,20.07
2018-08-27T09:19:47.868Z,19.91
2018-08-27T09:20:54.167Z,19.95
2018-08-27T09:22:00.143Z,19.96
2018-08-27T09:23:06.465Z,19.99
2018-08-27T09:24:12.805Z,20.00
2018-08-27T09:25:19.085Z,19.98
2018-08-27T09:26:31.068Z,19.95
2018-08-27T09:27:37.361Z,20.06
2018-08-27T09:28:43.683Z,20.13
2018-08-27T09:29:49.955Z,20.10
2018-08-27T09:30:56.292Z,19.85
2018-08-27T09:32:02.629Z,20.02
2018-08-27T09:33:09.115Z,20.10
2018-08-27T09:34:15.546Z,20.04
2018-08-27T09:35:21.826Z,20.00
2018-08-27T09:36:28.187Z,20.06
2018-08-27T09:37:34.180Z,20.01
2018-08-27T09:38:40.557Z,19.97
2018-08-27T09:39:46.873Z,20.05
2018-08-27T09:40:53.124Z,19.94
2018-08-27T09:41:59.900Z,20.08
2018-08-27T09:43:06.192Z,20.18
2018-08-27T09:44:12.376Z,20.16
2018-08-27T09:45:18.773Z,20.19
2018-08-27T09:46:25.077Z,20.31
2018-08-27T09:47:31.351Z,20.31
2018-08-27T09:48:37.337Z,20.34
2018-08-27T09:49:43.585Z,20.29
2018-08-27T09:50:49.892Z,20.27
2018-08-27T09:51:56.111Z,20.26
2018-08-27T09:53:02.622Z,20.41
2018-08-27T09:54:08.971Z,20.49
2018-08-27T09:55:15.243Z,20.47
2018-08-27T09:56:21.584Z,20.62
2018-08-27T09:57:27.833Z,20.69
2018-08-27T09:58:34.093Z,20.67
2018-08-27T09:59:40.680Z,20.67
2018-08-27T10:00:46.753Z,20.72
2018-08-27T10:01:52.910Z,20.79
2018-08-27T10:02:59.320Z,20.94
2018-08-27T10:04:05.968Z,21.05
2018-08-27T10:05:12.404Z,21.01
2018-08-27T10:06:18.683Z,21.08
2018-08-27T10:07:25.007Z,21.18
2018-08-27T10:08:31.286Z,21.01
2018-08-27T10:09:37.600Z,21.04
2018-08-27T10:10:43.914Z,21.09
2018-08-27T10:11:50.255Z,21.17
2018-08-27T10:12:56.844Z,21.29
2018-08-27T10:14:03.225Z,21.28
2018-08-27T10:15:09.113Z,21.12
2018-08-27T10:16:15.522Z,21.11
2018-08-27T10:17:21.784Z,21.14
2018-08-27T10:18:28.102Z,21.15
2018-08-27T10:19:34.407Z,21.22
2018-08-27T10:20:40.479Z,21.47
2018-08-27T10:21:47.064Z,21.39
2018-08-27T10:22:53.908Z,21.50
2018-08-27T10:24:00.197Z,21.55
2018-08-27T10:25:06.111Z,21.87
2018-08-27T10:26:12.520Z,22.04
2018-08-27T10:27:19.127Z,22.04
2018-08-27T10:28:25.420Z,22.07
2018-08-27T10:29:31.291Z,22.13
2018-08-27T10:30:37.944Z,22.10
2018-08-27T10:31:44.376Z,22.13
2018-08-27T10:32:50.663Z,22.07
2018-08-27T10:33:56.741Z,22.33
2018-08-27T10:35:02.960Z,22.39
2018-08-27T10:36:09.175Z,22.61
2018-08-27T10:37:15.517Z,22.73
2018-08-27T10:38:21.915Z,22.63
2018-08-27T10:39:28.311Z,22.63
2018-08-27T10:40:34.431Z,22.88
2018-08-27T10:41:40.375Z,23.04
2018-08-27T10:42:46.336Z,23.07
2018-08-27T10:43:52.553Z,23.07
2018-08-27T10:44:59.074Z,22.98
2018-08-27T10:46:04.856Z,23.10
2018-08-27T10:47:11.117Z,23.32
2018-08-27T10:48:17.531Z,23.46
2018-08-27T10:49:24.280Z,23.26
2018-08-27T10:50:30.554Z,23.27
2018-08-27T10:51:37.196Z,23.11
2018-08-27T10:52:43.494Z,23.22
2018-08-27T10:53:50.660Z,23.18
2018-08-27T10:54:57.457Z,23.30
2018-08-27T10:56:03.768Z,23.24
2018-08-27T10:57:09.869Z,23.10
2018-08-27T10:58:16.243Z,22.88
2018-08-27T10:59:22.666Z,22.80
2018-08-27T11:00:28.989Z,22.72
2018-08-27T11:01:35.348Z,22.79
2018-08-27T11:02:41.545Z,22.74
2018-08-27T11:03:47.837Z,22.86
2018-08-27T11:04:54.292Z,22.99
2018-08-27T11:06:00.561Z,23.03
2018-08-27T11:07:06.272Z,23.04
2018-08-27T11:08:12.241Z,23.13
2018-08-27T11:09:18.554Z,23.22
2018-08-27T11:10:24.870Z,23.06
2018-08-27T11:11:31.176Z,23.15
2018-08-27T11:12:37.654Z,23.30
2018-08-27T11:13:44.005Z,23.39
2018-08-27T11:14:51.296Z,23.27
2018-08-27T11:15:57.258Z,23.28
2018-08-27T11:17:03.512Z,23.38
2018-08-27T11:18:09.777Z,23.50
2018-08-27T11:19:16.088Z,23.46
2018-08-27T11:20:22.202Z,23.32
2018-08-27T11:21:29.133Z,23.34
2018-08-27T11:22:35.125Z,23.33
2018-08-27T11:23:41.608Z,23.22
2018-08-27T11:24:47.880Z,23.03
2018-08-27T11:25:54.159Z,22.78
2018-08-27T11:27:00.389Z,22.95
2018-08-27T11:28:06.695Z,23.08
2018-08-27T11:29:12.987Z,23.08
2018-08-27T11:30:19.319Z,22.99
2018-08-27T11:31:27.577Z,22.92
2018-08-27T11:32:33.896Z,22.72
2018-08-27T11:33:40.603Z,22.75
2018-08-27T11:34:46.956Z,22.87
2018-08-27T11:35:53.858Z,22.93
2018-08-27T11:37:00.179Z,23.07
2018-08-27T11:38:05.815Z,23.11
2018-08-27T11:39:11.412Z,23.06
2018-08-27T11:40:17.843Z,23.32
2018-08-27T11:41:24.170Z,23.46
2018-08-27T11:42:30.534Z,23.42
2018-08-27T11:43:37.623Z,23.31
2018-08-27T11:44:43.664Z,23.18
2018-08-27T11:45:49.968Z,23.33
2018-08-27T11:46:56.228Z,23.34
2018-08-27T11:48:02.581Z,23.37
2018-08-27T11:49:08.535Z,23.43
2018-08-27T11:50:14.806Z,23.23
2018-08-27T11:51:21.290Z,23.34
2018-08-27T11:52:27.633Z,23.53
2018-08-27T11:53:35.715Z,23.74
2018-08-27T11:54:41.911Z,23.97
2018-08-27T11:55:48.160Z,24.19
2018-08-27T11:56:54.378Z,24.25
2018-08-27T11:58:00.718Z,24.11
2018-08-27T11:59:07.004Z,24.23
2018-08-27T12:00:13.076Z,24.21
2018-08-27T12:01:19.099Z,24.11
2018-08-27T12:02:25.973Z,23.96
2018-08-27T12:03:32.281Z,24.07
2018-08-27T12:04:38.325Z,24.07
2018-08-27T12:05:44.699Z,24.06
2018-08-27T12:06:50.981Z,23.93
2018-08-27T12:07:57.327Z,23.85
2018-08-27T12:09:03.194Z,23.78
2018-08-27T12:10:09.127Z,23.69
2018-08-27T12:11:15.507Z,23.61
2018-08-27T12:12:22.395Z,23.45
2018-08-27T12:13:28.705Z,23.22
2018-08-27T12:14:34.939Z,23.11
2018-08-27T12:15:41.262Z,23.07
2018-08-27T12:16:48.727Z,22.95
2018-08-27T12:17:55.540Z,23.01
2018-08-27T12:19:01.856Z,22.97
2018-08-27T12:20:07.497Z,22.94
2018-08-27T12:21:13.813Z,22.99
2018-08-27T12:22:21.080Z,23.09
2018-08-27T12:23:27.438Z,23.00
2018-08-27T12:24:33.750Z,22.89
2018-08-27T12:25:39.820Z,23.03
2018-08-27T12:26:46.148Z,23.03
2018-08-27T12:27:52.515Z,22.98
2018-08-27T12:28:58.760Z,22.98
2018-08-27T12:30:04.492Z,22.92
2018-08-27T12:31:11.244Z,22.85
2018-08-27T12:32:17.619Z,22.89
2018-08-27T12:33:23.937Z,22.90
2018-08-27T12:34:30.217Z,23.03
2018-08-27T12:35:36.836Z,22.96
2018-08-27T12:36:43.624Z,22.88
2018-08-27T12:37:49.927Z,22.90
2018-08-27T12:38:56.519Z,22.85
2018-08-27T12:40:02.865Z,22.82
2018-08-27T12:41:09.579Z,22.80
2018-08-27T12:42:16.042Z,22.91
2018-08-27T12:43:22.371Z,22.91
2018-08-27T12:44:29.133Z,22.90
2018-08-27T12:45:35.437Z,22.86
2018-08-27T12:46:41.645Z,22.92
2018-08-27T12:47:47.914Z,22.85
2018-08-27T12:48:54.236Z,22.85
2018-08-27T12:50:00.987Z,22.87
2018-08-27T12:51:06.905Z,22.91
2018-08-27T12:52:13.147Z,22.85
2018-08-27T12:53:19.493Z,22.70
2018-08-27T12:54:25.806Z,22.72
2018-08-27T12:55:32.084Z,22.81
2018-08-27T12:56:38.078Z,22.87
2018-08-27T12:57:44.304Z,22.90
2018-08-27T12:58:50.679Z,22.94
2018-08-27T12:59:58.717Z,22.84
2018-08-27T13:01:05.144Z,22.87
2018-08-27T13:02:11.552Z,22.88
2018-08-27T13:03:17.828Z,22.88
2018-08-27T13:04:24.111Z,22.95
2018-08-27T13:05:30.247Z,22.90
2018-08-27T13:06:36.577Z,22.91
2018-08-27T13:07:43.017Z,22.87
2018-08-27T13:08:52.131Z,22.84
2018-08-27T13:09:58.335Z,22.94
2018-08-27T13:11:04.288Z,22.97
2018-08-27T13:12:10.680Z,23.09
2018-08-27T13:13:17.008Z,23.18
2018-08-27T13:14:23.303Z,23.23
2018-08-27T13:15:29.622Z,23.39
2018-08-27T13:16:35.940Z,23.50
2018-08-27T13:17:42.787Z,23.45
2018-08-27T13:18:49.122Z,23.57
2018-08-27T13:19:55.676Z,23.49
2018-08-27T13:21:01.968Z,23.38
2018-08-27T13:22:08.181Z,23.58
2018-08-27T13:23:14.484Z,23.57
2018-08-27T13:24:20.728Z,23.67
2018-08-27T13:25:26.833Z,23.72
2018-08-27T13:26:33.338Z,23.71
2018-08-27T13:27:40.292Z,23.65
2018-08-27T13:28:46.599Z,23.51
2018-08-27T13:29:52.875Z,23.45
2018-08-27T13:30:59.506Z,23.11
2018-08-27T13:32:05.864Z,23.04
2018-08-27T13:33:12.163Z,23.03
2018-08-27T13:34:18.571Z,22.94
2018-08-27T13:35:24.876Z,23.07
2018-08-27T13:36:31.322Z,23.21
2018-08-27T13:37:37.667Z,23.33
2018-08-27T13:38:44.524Z,23.34
2018-08-27T13:39:50.822Z,23.41
2018-08-27T13:40:56.912Z,23.49
2018-08-27T13:42:03.241Z,23.54
2018-08-27T13:43:09.544Z,23.59
2018-08-27T13:44:15.101Z,23.67
2018-08-27T13:45:21.383Z,23.72
2018-08-27T13:46:28.132Z,23.74
2018-08-27T13:47:34.224Z,23.71
2018-08-27T13:48:41.062Z,23.67
2018-08-27T13:49:47.247Z,23.86
2018-08-27T13:50:53.199Z,23.97
2018-08-27T13:51:58.981Z,23.95
2018-08-27T13:53:04.558Z,24.08
2018-08-27T13:54:10.955Z,24.02
2018-08-27T13:55:17.981Z,23.99
2018-08-27T13:56:24.607Z,24.03
2018-08-27T13:57:31.147Z,23.97
2018-08-27T13:58:37.415Z,24.01
2018-08-27T13:59:43.748Z,23.91
2018-08-27T14:00:50.433Z,24.17
2018-08-27T14:01:56.643Z,24.29
2018-08-27T14:03:02.898Z,24.27
2018-08-27T14:04:08.883Z,24.28
2018-08-27T14:05:15.218Z,24.27
2018-08-27T14:06:22.021Z,24.11
2018-08-27T14:07:28.511Z,24.07
2018-08-27T14:08:34.751Z,24.12
2018-08-27T14:09:41.063Z,24.23
2018-08-27T14:10:47.334Z,24.29
2018-08-27T14:11:54.001Z,24.27
2018-08-27T14:13:00.289Z,24.32
2018-08-27T14:14:06.595Z,24.45
2018-08-27T14:15:12.656Z,24.54
2018-08-27T14:16:19.178Z,24.74